Time;durP1;ratioP1;P1;durP2;ratioP2;P2;SDS_P1;SDS_P2;PMS_P1;PMS_P2;Temp;Humidity;BMP_temperature;BMP_pressure;BME280_temperature;BME280_humidity;BME280_pressure;Samples;Min_cycle;Max_cycle;Signal;HPM_P1;HPM_P2
2023/05/23 00:02:14;;;;;;;21.70;10.68;;;;;;;;;;5054887;28;20056;-76
2023/05/23 00:04:41;;;;;;;18.92;10.65;;;;;;;;;;5046600;28;20041;-76
2023/05/23 00:07:08;;;;;;;30.17;11.98;;;;;;;;;;5036355;28;20116;-76
2023/05/23 00:09:34;;;;;;;22.05;10.68;;;;;;;;;;5037026;28;20037;-76
2023/05/23 00:12:00;;;;;;;26.75;11.60;;;;;;;;;;5030512;28;20053;-76
2023/05/23 00:14:26;;;;;;;30.98;11.40;;;;;;;;;;5034474;28;20098;-76
2023/05/23 00:16:52;;;;;;;19.77;10.07;;;;;;;;;;5035371;28;20486;-76
2023/05/23 00:19:18;;;;;;;25.15;10.80;;;;;;;;;;5050667;28;20037;-76
2023/05/23 00:21:49;;;;;;;24.20;9.50;;;;;;;;;;5033603;28;20045;-76
2023/05/23 00:24:17;;;;;;;21.10;9.73;;;;;;;;;;5040708;28;20056;-77
2023/05/23 00:26:44;;;;;;;28.10;11.40;;;;;;;;;;5021098;28;20053;-76
2023/05/23 00:29:15;;;;;;;29.67;11.13;;;;;;;;;;5051574;28;20045;-76
2023/05/23 00:31:42;;;;;;;21.95;10.43;;;;;;;;;;5030603;28;20049;-76
2023/05/23 00:34:08;;;;;;;30.75;11.27;;;;;;;;;;5045635;28;20071;-76
2023/05/23 00:36:36;;;;;;;23.98;10.68;;;;;;;;;;5023722;28;20058;-76
2023/05/23 00:39:03;;;;;;;26.15;10.88;;;;;;;;;;5046413;28;20148;-76
2023/05/23 00:41:30;;;;;;;22.98;10.93;;;;;;;;;;5034175;28;20045;-76
2023/05/23 00:44:00;;;;;;;20.73;9.25;;;;;;;;;;5034717;28;20084;-76
2023/05/23 00:46:27;;;;;;;29.42;11.52;;;;;;;;;;5034485;28;20045;-76
2023/05/23 00:48:53;;;;;;;31.67;10.70;;;;;;;;;;5034738;28;20042;-77
2023/05/23 00:51:19;;;;;;;25.85;11.18;;;;;;;;;;5033845;28;20045;-76
2023/05/23 00:53:46;;;;;;;28.65;11.75;;;;;;;;;;5036996;28;20036;-76
2023/05/23 00:56:12;;;;;;;28.48;11.07;;;;;;;;;;5046337;28;20080;-76
2023/05/23 00:58:39;;;;;;;24.05;10.88;;;;;;;;;;5053076;28;20044;-76
2023/05/23 01:01:05;;;;;;;30.63;11.40;;;;;;;;;;5053207;28;20455;-76
2023/05/23 01:03:32;;;;;;;27.30;12.60;;;;;;;;;;5045936;28;20049;-76
2023/05/23 01:05:58;;;;;;;24.00;11.30;;;;;;;;;;5018417;28;20046;-77
2023/05/23 01:08:24;;;;;;;27.55;11.77;;;;;;;;;;5035503;28;20190;-76
2023/05/23 01:10:51;;;;;;;22.17;11.25;;;;;;;;;;5049111;28;20330;-76
2023/05/23 01:13:34;;;;;;;24.30;10.85;;;;;;;;;;5016439;28;20045;-76
2023/05/23 01:16:12;;;;;;;23.20;10.60;;;;;;;;;;5036308;28;20036;-76
2023/05/23 01:18:58;;;;;;;19.85;10.60;;;;;;;;;;5047026;28;20464;-76
2023/05/23 01:21:24;;;;;;;19.52;10.20;;;;;;;;;;5035335;28;20136;-76
2023/05/23 01:24:05;;;;;;;20.23;9.70;;;;;;;;;;5049387;28;20101;-76
2023/05/23 01:26:48;;;;;;;25.67;10.00;;;;;;;;;;5049784;28;20174;-76
2023/05/23 01:29:18;;;;;;;20.20;9.68;;;;;;;;;;5048285;28;20040;-76
2023/05/23 01:31:46;;;;;;;23.83;8.63;;;;;;;;;;5037353;28;20149;-76
2023/05/23 01:34:13;;;;;;;20.83;8.90;;;;;;;;;;5039947;28;20052;-76
2023/05/23 01:36:42;;;;;;;22.35;8.57;;;;;;;;;;5029247;28;20048;-76
2023/05/23 01:39:09;;;;;;;24.25;8.93;;;;;;;;;;5053380;28;20381;-76
2023/05/23 01:41:35;;;;;;;19.75;8.20;;;;;;;;;;5044187;28;20047;-76
2023/05/23 01:44:02;;;;;;;26.52;8.85;;;;;;;;;;5053191;28;20094;-76
2023/05/23 01:46:29;;;;;;;20.30;8.55;;;;;;;;;;5053129;28;20099;-76
2023/05/23 01:48:55;;;;;;;20.08;8.25;;;;;;;;;;5052740;28;20118;-76
2023/05/23 01:51:21;;;;;;;21.35;7.60;;;;;;;;;;5051319;28;20091;-76
2023/05/23 01:53:48;;;;;;;17.02;7.72;;;;;;;;;;5038261;28;20087;-76
2023/05/23 01:56:14;;;;;;;21.90;8.38;;;;;;;;;;5047151;28;20453;-76
2023/05/23 01:58:40;;;;;;;18.83;8.63;;;;;;;;;;5035521;28;20111;-76
2023/05/23 02:01:06;;;;;;;19.08;7.70;;;;;;;;;;5033592;28;20388;-76
2023/05/23 02:03:33;;;;;;;16.20;7.18;;;;;;;;;;5034931;28;20052;-76
2023/05/23 02:05:59;;;;;;;18.13;7.47;;;;;;;;;;5050739;28;20609;-76
2023/05/23 02:08:25;;;;;;;21.73;8.85;;;;;;;;;;5052498;28;20589;-76
2023/05/23 02:10:51;;;;;;;22.35;9.10;;;;;;;;;;5034062;28;20124;-76
2023/05/23 02:13:17;;;;;;;20.33;8.00;;;;;;;;;;5026745;28;20076;-76
2023/05/23 02:15:43;;;;;;;22.92;7.93;;;;;;;;;;5009280;28;20472;-76
2023/05/23 02:18:09;;;;;;;22.17;7.35;;;;;;;;;;5021948;28;20516;-76
2023/05/23 02:20:35;;;;;;;20.42;8.18;;;;;;;;;;5048014;28;20129;-76
2023/05/23 02:23:01;;;;;;;17.83;8.32;;;;;;;;;;5032539;28;20057;-76
2023/05/23 02:25:27;;;;;;;20.85;8.07;;;;;;;;;;5032585;28;20051;-76
2023/05/23 02:27:53;;;;;;;17.40;6.97;;;;;;;;;;5034404;28;20183;-76
2023/05/23 02:30:19;;;;;;;20.08;7.50;;;;;;;;;;5013320;28;20123;-76
2023/05/23 02:32:46;;;;;;;19.40;7.20;;;;;;;;;;5021502;28;20826;-76
2023/05/23 02:35:12;;;;;;;17.63;6.60;;;;;;;;;;5030767;28;20060;-76
2023/05/23 02:37:38;;;;;;;13.25;7.38;;;;;;;;;;5042152;28;20045;-76
2023/05/23 02:40:06;;;;;;;14.63;6.80;;;;;;;;;;5032763;28;20046;-76
2023/05/23 02:42:32;;;;;;;15.82;6.60;;;;;;;;;;5030566;28;20049;-76
2023/05/23 02:44:59;;;;;;;17.17;6.55;;;;;;;;;;5054499;28;20045;-76
2023/05/23 02:47:25;;;;;;;19.27;6.50;;;;;;;;;;5045371;28;20045;-76
2023/05/23 02:49:51;;;;;;;18.55;6.32;;;;;;;;;;5044726;28;20045;-77
2023/05/23 02:52:17;;;;;;;18.00;6.28;;;;;;;;;;5055839;28;20045;-76
2023/05/23 02:54:43;;;;;;;16.65;5.97;;;;;;;;;;5034001;28;20388;-76
2023/05/23 02:57:09;;;;;;;18.00;5.70;;;;;;;;;;5036919;28;20531;-76
2023/05/23 02:59:35;;;;;;;18.65;5.75;;;;;;;;;;5046405;28;20045;-76
2023/05/23 03:02:01;;;;;;;10.50;5.20;;;;;;;;;;5036221;28;20073;-76
2023/05/23 03:04:28;;;;;;;13.30;5.28;;;;;;;;;;5035206;28;20077;-76
2023/05/23 03:06:54;;;;;;;15.68;5.97;;;;;;;;;;5043341;28;20551;-76
2023/05/23 03:09:20;;;;;;;13.57;6.32;;;;;;;;;;5024303;28;20053;-76
2023/05/23 03:11:46;;;;;;;10.82;6.05;;;;;;;;;;5035379;28;20423;-76
2023/05/23 03:14:12;;;;;;;14.32;6.72;;;;;;;;;;5041243;28;20064;-76
2023/05/23 03:16:39;;;;;;;20.42;7.47;;;;;;;;;;5054725;28;20504;-76
2023/05/23 03:19:05;;;;;;;19.60;8.40;;;;;;;;;;5034554;28;20045;-76
2023/05/23 03:21:33;;;;;;;16.40;8.27;;;;;;;;;;5054330;28;20411;-76
2023/05/23 03:23:59;;;;;;;18.75;8.68;;;;;;;;;;5043002;28;20495;-76
2023/05/23 03:26:26;;;;;;;14.48;7.03;;;;;;;;;;5035202;28;20041;-76
2023/05/23 03:28:52;;;;;;;13.98;5.70;;;;;;;;;;5028592;28;20041;-76
2023/05/23 03:31:18;;;;;;;17.08;6.28;;;;;;;;;;5050981;28;20041;-76
2023/05/23 03:33:44;;;;;;;15.98;6.53;;;;;;;;;;5017842;28;20547;-77
2023/05/23 03:36:10;;;;;;;17.08;6.47;;;;;;;;;;5031007;28;20396;-76
2023/05/23 03:38:36;;;;;;;16.60;7.38;;;;;;;;;;5047719;28;20123;-76
2023/05/23 03:41:02;;;;;;;14.35;5.28;;;;;;;;;;5015906;28;20076;-76
2023/05/23 03:43:28;;;;;;;13.80;5.95;;;;;;;;;;5019146;28;20045;-76
2023/05/23 03:45:54;;;;;;;16.75;5.90;;;;;;;;;;5035655;28;20042;-76
2023/05/23 03:48:20;;;;;;;18.08;6.45;;;;;;;;;;5031431;28;20049;-76
2023/05/23 03:50:47;;;;;;;18.75;6.22;;;;;;;;;;5037679;28;20430;-76
2023/05/23 03:53:13;;;;;;;14.20;6.28;;;;;;;;;;5054430;28;20069;-76
2023/05/23 03:55:39;;;;;;;18.77;5.82;;;;;;;;;;5037420;28;20050;-76
2023/05/23 03:58:06;;;;;;;12.25;5.07;;;;;;;;;;5040523;28;20118;-76
2023/05/23 04:00:32;;;;;;;12.02;5.97;;;;;;;;;;5054028;28;20048;-76
2023/05/23 04:02:58;;;;;;;10.80;5.43;;;;;;;;;;5048713;28;20490;-76
2023/05/23 04:05:24;;;;;;;10.60;5.38;;;;;;;;;;5035539;28;20041;-76
2023/05/23 04:07:51;;;;;;;9.45;4.95;;;;;;;;;;5036317;28;20065;-76
2023/05/23 04:10:17;;;;;;;12.90;5.75;;;;;;;;;;5035418;28;20472;-76
2023/05/23 04:12:43;;;;;;;15.02;6.00;;;;;;;;;;5042862;28;20045;-76
2023/05/23 04:15:10;;;;;;;17.63;6.70;;;;;;;;;;5026776;28;20094;-76
2023/05/23 04:17:37;;;;;;;12.07;6.18;;;;;;;;;;5033316;28;20081;-76
2023/05/23 04:20:04;;;;;;;17.02;6.40;;;;;;;;;;5042237;28;20053;-76
2023/05/23 04:22:30;;;;;;;14.15;5.90;;;;;;;;;;5037307;28;20041;-76
2023/05/23 04:24:56;;;;;;;12.98;5.90;;;;;;;;;;5046681;28;20045;-76
2023/05/23 04:27:24;;;;;;;11.77;5.55;;;;;;;;;;5034639;28;20044;-75
2023/05/23 04:29:51;;;;;;;17.38;6.60;;;;;;;;;;5053978;28;20159;-75
2023/05/23 04:32:18;;;;;;;13.25;6.22;;;;;;;;;;5045789;28;20045;-76
2023/05/23 04:34:44;;;;;;;10.30;6.32;;;;;;;;;;5039491;28;20107;-76
2023/05/23 04:37:10;;;;;;;15.82;6.78;;;;;;;;;;5038085;28;20124;-76
2023/05/23 04:39:37;;;;;;;16.88;6.97;;;;;;;;;;5045364;28;20049;-76
2023/05/23 04:42:03;;;;;;;12.93;6.00;;;;;;;;;;5043346;28;20124;-75
2023/05/23 04:44:29;;;;;;;13.98;5.47;;;;;;;;;;5050049;28;20120;-75
2023/05/23 04:46:56;;;;;;;14.57;6.03;;;;;;;;;;5035866;28;20129;-76
2023/05/23 04:49:22;;;;;;;14.68;5.75;;;;;;;;;;5052876;28;20053;-76
2023/05/23 04:51:48;;;;;;;14.52;6.25;;;;;;;;;;5048704;28;20495;-76
2023/05/23 04:54:14;;;;;;;13.25;6.40;;;;;;;;;;5045936;28;20052;-76
2023/05/23 04:56:40;;;;;;;19.08;6.18;;;;;;;;;;5053000;28;20194;-76
2023/05/23 04:59:10;;;;;;;21.42;5.68;;;;;;;;;;5051477;28;20079;-76
2023/05/23 05:01:39;;;;;;;16.45;6.70;;;;;;;;;;5034861;28;20460;-77
2023/05/23 05:04:05;;;;;;;16.80;5.97;;;;;;;;;;5034887;28;20120;-76
2023/05/23 05:06:32;;;;;;;11.10;4.78;;;;;;;;;;5052204;28;20055;-76
2023/05/23 05:08:58;;;;;;;9.63;4.80;;;;;;;;;;5035143;28;20410;-76
2023/05/23 05:11:25;;;;;;;14.40;4.88;;;;;;;;;;5051068;28;20095;-76
2023/05/23 05:13:52;;;;;;;15.10;4.75;;;;;;;;;;5054133;28;20136;-76
2023/05/23 05:16:18;;;;;;;11.52;5.03;;;;;;;;;;5043515;28;20120;-76
2023/05/23 05:18:44;;;;;;;11.32;4.75;;;;;;;;;;5023624;28;20056;-76
2023/05/23 05:21:10;;;;;;;9.60;4.22;;;;;;;;;;5015557;28;20068;-76
2023/05/23 05:23:36;;;;;;;17.90;5.00;;;;;;;;;;5017771;28;20346;-76
2023/05/23 05:26:04;;;;;;;11.43;4.60;;;;;;;;;;5031877;28;20076;-76
2023/05/23 05:28:30;;;;;;;16.88;5.10;;;;;;;;;;5039150;28;20568;-76
2023/05/23 05:30:56;;;;;;;14.85;4.95;;;;;;;;;;5043647;28;20052;-76
2023/05/23 05:33:22;;;;;;;15.10;4.82;;;;;;;;;;5058704;28;20183;-76
2023/05/23 05:35:50;;;;;;;16.58;5.15;;;;;;;;;;5025266;28;20053;-76
2023/05/23 05:38:16;;;;;;;11.93;4.50;;;;;;;;;;5028230;28;20056;-76
2023/05/23 05:40:42;;;;;;;13.63;4.43;;;;;;;;;;5049950;28;20048;-76
2023/05/23 05:43:09;;;;;;;14.75;4.32;;;;;;;;;;5045607;28;20359;-76
2023/05/23 05:45:35;;;;;;;11.27;4.63;;;;;;;;;;5047595;28;20504;-76
2023/05/23 05:48:01;;;;;;;15.57;4.55;;;;;;;;;;5049495;28;20505;-76
2023/05/23 05:50:27;;;;;;;15.00;5.55;;;;;;;;;;5021913;28;20083;-76
2023/05/23 05:52:53;;;;;;;18.33;4.90;;;;;;;;;;5042351;28;20128;-76
2023/05/23 05:55:19;;;;;;;16.42;5.45;;;;;;;;;;5037382;28;20103;-80
2023/05/23 05:57:45;;;;;;;11.20;5.03;;;;;;;;;;5025970;28;20080;-76
2023/05/23 06:00:14;;;;;;;15.57;5.07;;;;;;;;;;5014762;28;20050;-77
2023/05/23 06:02:41;;;;;;;16.13;5.07;;;;;;;;;;5029502;28;20049;-77
2023/05/23 06:05:11;;;;;;;17.52;5.03;;;;;;;;;;5033167;28;20045;-76
2023/05/23 06:07:37;;;;;;;13.32;4.63;;;;;;;;;;5037116;28;20087;-76
2023/05/23 06:10:03;;;;;;;16.38;4.85;;;;;;;;;;5051828;28;20548;-76
2023/05/23 06:12:29;;;;;;;10.65;3.97;;;;;;;;;;5051090;28;20091;-76
2023/05/23 06:14:55;;;;;;;11.43;4.28;;;;;;;;;;5051312;28;20464;-76
2023/05/23 06:17:21;;;;;;;17.60;5.32;;;;;;;;;;5037710;28;20167;-76
2023/05/23 06:19:47;;;;;;;13.82;4.05;;;;;;;;;;5021344;28;20080;-76
2023/05/23 06:22:13;;;;;;;15.32;4.40;;;;;;;;;;5049207;28;20041;-77
2023/05/23 06:24:39;;;;;;;12.10;4.18;;;;;;;;;;5024600;28;20045;-76
2023/05/23 06:27:05;;;;;;;14.30;4.55;;;;;;;;;;5039777;28;20073;-77
2023/05/23 06:29:31;;;;;;;13.25;4.05;;;;;;;;;;5042686;28;20131;-77
2023/05/23 06:31:57;;;;;;;17.00;3.63;;;;;;;;;;5036536;28;20041;-76
2023/05/23 06:34:24;;;;;;;13.60;3.72;;;;;;;;;;5018695;28;20045;-76
2023/05/23 06:36:50;;;;;;;14.57;4.15;;;;;;;;;;5046223;28;20053;-77
2023/05/23 06:39:16;;;;;;;19.23;4.00;;;;;;;;;;5042084;28;20121;-77
2023/05/23 06:41:42;;;;;;;13.80;3.90;;;;;;;;;;5030442;28;20133;-76
2023/05/23 06:44:08;;;;;;;15.25;3.80;;;;;;;;;;5054225;28;20099;-76
2023/05/23 06:46:34;;;;;;;15.65;4.68;;;;;;;;;;5054458;28;20041;-76
2023/05/23 06:49:00;;;;;;;24.42;4.55;;;;;;;;;;5035206;28;20075;-77
2023/05/23 06:51:26;;;;;;;11.98;3.72;;;;;;;;;;5036259;28;20380;-76
2023/05/23 06:53:52;;;;;;;11.63;3.88;;;;;;;;;;5053707;28;20481;-77
2023/05/23 06:56:18;;;;;;;14.02;3.80;;;;;;;;;;5053770;28;20498;-77
2023/05/23 06:58:44;;;;;;;12.15;4.50;;;;;;;;;;5018949;28;20137;-76
2023/05/23 07:01:10;;;;;;;13.88;3.88;;;;;;;;;;5036502;28;20377;-77
2023/05/23 07:03:40;;;;;;;13.88;4.28;;;;;;;;;;5048564;28;20041;-76
2023/05/23 07:06:06;;;;;;;21.83;4.13;;;;;;;;;;5027137;28;20049;-76
2023/05/23 07:08:32;;;;;;;10.07;4.18;;;;;;;;;;5003946;28;20049;-77
2023/05/23 07:10:58;;;;;;;21.98;4.13;;;;;;;;;;5019544;28;20120;-77
2023/05/23 07:13:24;;;;;;;11.95;4.45;;;;;;;;;;5038552;28;20488;-76
2023/05/23 07:15:50;;;;;;;16.10;4.97;;;;;;;;;;5037765;28;20344;-77
2023/05/23 07:18:16;;;;;;;16.23;3.97;;;;;;;;;;5021682;28;20124;-76
2023/05/23 07:20:42;;;;;;;13.02;4.15;;;;;;;;;;5052649;28;20041;-77
2023/05/23 07:23:09;;;;;;;13.93;4.65;;;;;;;;;;5033860;28;20162;-76
2023/05/23 07:25:35;;;;;;;16.88;4.32;;;;;;;;;;5019562;28;20041;-77
2023/05/23 07:28:01;;;;;;;19.23;5.35;;;;;;;;;;5037676;28;20491;-77
2023/05/23 07:30:27;;;;;;;17.15;4.18;;;;;;;;;;5053797;28;20402;-77
2023/05/23 07:32:54;;;;;;;16.77;4.78;;;;;;;;;;5039609;28;20048;-77
2023/05/23 07:35:24;;;;;;;17.77;4.63;;;;;;;;;;5055421;28;20068;-76
2023/05/23 07:37:51;;;;;;;12.82;4.65;;;;;;;;;;5043225;28;20061;-76
2023/05/23 07:40:18;;;;;;;12.73;4.28;;;;;;;;;;5040278;28;20387;-77
2023/05/23 07:42:44;;;;;;;15.43;4.70;;;;;;;;;;5046034;28;20100;-76
2023/05/23 07:45:10;;;;;;;12.10;4.28;;;;;;;;;;5052516;28;20038;-77
2023/05/23 07:47:36;;;;;;;17.90;4.90;;;;;;;;;;5039985;28;20044;-77
2023/05/23 07:50:03;;;;;;;12.60;4.45;;;;;;;;;;5053145;28;20044;-77
2023/05/23 07:52:30;;;;;;;17.92;4.72;;;;;;;;;;5059679;28;20117;-77
2023/05/23 07:54:56;;;;;;;14.80;4.50;;;;;;;;;;5055927;28;20060;-77
2023/05/23 07:57:26;;;;;;;18.02;5.00;;;;;;;;;;5054836;28;20080;-77
2023/05/23 07:59:52;;;;;;;13.48;4.18;;;;;;;;;;5036691;28;20057;-77
2023/05/23 08:02:19;;;;;;;12.38;4.43;;;;;;;;;;5055567;28;20041;-77
2023/05/23 08:04:45;;;;;;;13.57;4.53;;;;;;;;;;5047268;28;20037;-77
2023/05/23 08:07:12;;;;;;;13.65;4.40;;;;;;;;;;5048025;28;20106;-77
2023/05/23 08:09:41;;;;;;;20.20;5.10;;;;;;;;;;5051053;28;20044;-76
2023/05/23 08:12:08;;;;;;;11.30;3.95;;;;;;;;;;5030557;28;20060;-76
2023/05/23 08:14:34;;;;;;;16.95;4.13;;;;;;;;;;5042115;28;20056;-76
2023/05/23 08:17:01;;;;;;;13.85;4.60;;;;;;;;;;5050321;28;20041;-76
2023/05/23 08:19:27;;;;;;;14.85;4.80;;;;;;;;;;5036830;28;20475;-76
2023/05/23 08:21:53;;;;;;;12.23;3.42;;;;;;;;;;5040688;28;20042;-76
2023/05/23 08:24:20;;;;;;;12.55;3.80;;;;;;;;;;5038451;28;20049;-76
2023/05/23 08:26:46;;;;;;;14.88;4.10;;;;;;;;;;5036344;28;20057;-76
2023/05/23 08:29:12;;;;;;;17.67;4.30;;;;;;;;;;5041070;28;20049;-76
2023/05/23 08:31:38;;;;;;;18.55;4.38;;;;;;;;;;5019328;28;20450;-75
2023/05/23 08:34:04;;;;;;;16.25;4.10;;;;;;;;;;5051477;28;20410;-78
2023/05/23 08:36:33;;;;;;;14.60;4.40;;;;;;;;;;5026139;28;20129;-76
2023/05/23 08:38:59;;;;;;;12.80;3.70;;;;;;;;;;5026728;28;20051;-76
2023/05/23 08:41:28;;;;;;;22.40;5.22;;;;;;;;;;5050470;28;20052;-76
2023/05/23 08:43:54;;;;;;;15.63;4.03;;;;;;;;;;5038753;28;20076;-76
2023/05/23 08:46:21;;;;;;;15.07;4.30;;;;;;;;;;5031111;28;20048;-76
2023/05/23 08:48:51;;;;;;;17.20;4.22;;;;;;;;;;5018483;28;20387;-75
2023/05/23 08:51:17;;;;;;;17.38;5.38;;;;;;;;;;5028866;28;20052;-76
2023/05/23 08:53:48;;;;;;;14.82;4.65;;;;;;;;;;5016413;28;20056;-76
2023/05/23 08:56:15;;;;;;;13.30;3.88;;;;;;;;;;5045979;28;20073;-76
2023/05/23 08:58:41;;;;;;;16.58;4.40;;;;;;;;;;5038805;28;20116;-76
2023/05/23 09:01:10;;;;;;;12.52;3.95;;;;;;;;;;5033865;28;20431;-76
2023/05/23 09:03:37;;;;;;;17.50;4.53;;;;;;;;;;5053483;28;20428;-78
2023/05/23 09:06:03;;;;;;;15.07;4.03;;;;;;;;;;5039561;28;20167;-76
2023/05/23 09:08:29;;;;;;;12.30;3.65;;;;;;;;;;5033589;28;20046;-76
2023/05/23 09:10:55;;;;;;;19.95;3.75;;;;;;;;;;5030812;28;20041;-76
2023/05/23 09:13:21;;;;;;;11.30;3.63;;;;;;;;;;5041427;28;20049;-76
2023/05/23 09:15:58;;;;;;;12.35;4.07;;;;;;;;;;5033910;28;20476;-76
2023/05/23 09:18:32;;;;;;;22.05;4.45;;;;;;;;;;5048590;28;20037;-79
2023/05/23 09:20:58;;;;;;;12.93;3.90;;;;;;;;;;5050611;28;20124;-76
2023/05/23 09:23:24;;;;;;;12.50;4.07;;;;;;;;;;5042242;28;20049;-76
2023/05/23 09:25:50;;;;;;;12.70;3.75;;;;;;;;;;5051174;28;20041;-77
2023/05/23 09:28:17;;;;;;;13.55;3.92;;;;;;;;;;5037570;28;20042;-75
2023/05/23 09:30:43;;;;;;;15.27;4.20;;;;;;;;;;5035425;28;20041;-77
2023/05/23 09:33:09;;;;;;;13.15;3.78;;;;;;;;;;5042116;28;20090;-77
2023/05/23 09:35:35;;;;;;;16.35;4.15;;;;;;;;;;5040085;28;20050;-77
2023/05/23 09:38:01;;;;;;;13.77;3.50;;;;;;;;;;5050984;28;20049;-76
2023/05/23 09:40:30;;;;;;;16.70;4.45;;;;;;;;;;5040480;28;20172;-77
2023/05/23 09:43:01;;;;;;;17.80;4.10;;;;;;;;;;5032287;28;20510;-76
2023/05/23 09:45:30;;;;;;;16.35;4.53;;;;;;;;;;5046622;28;20160;-76
2023/05/23 09:47:56;;;;;;;14.07;4.00;;;;;;;;;;5034005;28;20396;-77
2023/05/23 09:50:22;;;;;;;14.02;4.05;;;;;;;;;;5038095;28;20049;-76
2023/05/23 09:52:49;;;;;;;13.30;3.58;;;;;;;;;;5032338;28;20099;-76
2023/05/23 09:55:16;;;;;;;15.55;3.78;;;;;;;;;;5044662;28;20061;-76
2023/05/23 09:57:42;;;;;;;13.52;3.90;;;;;;;;;;5051500;28;20052;-76
2023/05/23 10:00:12;;;;;;;15.75;3.95;;;;;;;;;;5048457;28;20038;-76
2023/05/23 10:02:57;;;;;;;13.10;3.88;;;;;;;;;;5034810;28;20167;-76
2023/05/23 10:05:35;;;;;;;17.52;4.18;;;;;;;;;;5034403;28;20048;-80
2023/05/23 10:08:06;;;;;;;11.02;3.95;;;;;;;;;;5033829;28;20131;-77
2023/05/23 10:10:32;;;;;;;13.77;3.60;;;;;;;;;;5034251;28;20049;-76
2023/05/23 10:13:02;;;;;;;16.30;3.88;;;;;;;;;;5048997;28;20088;-76
2023/05/23 10:15:30;;;;;;;16.67;3.55;;;;;;;;;;5008652;28;20042;-76
2023/05/23 10:17:56;;;;;;;14.90;4.32;;;;;;;;;;5031346;28;20045;-76
2023/05/23 10:20:25;;;;;;;13.38;3.60;;;;;;;;;;5035168;28;20154;-76
2023/05/23 10:22:51;;;;;;;13.45;4.05;;;;;;;;;;5046387;28;20127;-76
2023/05/23 10:25:17;;;;;;;11.02;4.05;;;;;;;;;;5051336;28;20081;-76
2023/05/23 10:27:43;;;;;;;10.73;4.03;;;;;;;;;;5038251;28;20375;-76
2023/05/23 10:30:10;;;;;;;16.08;4.07;;;;;;;;;;5032167;28;20464;-77
2023/05/23 10:32:38;;;;;;;13.02;4.25;;;;;;;;;;5039479;28;20041;-80
2023/05/23 10:35:04;;;;;;;17.42;3.85;;;;;;;;;;5047394;28;20048;-77
2023/05/23 10:37:40;;;;;;;12.82;3.75;;;;;;;;;;5039181;28;20041;-80
2023/05/23 10:40:06;;;;;;;;;;;;;;;;;;5052653;28;20071;-76
2023/05/23 10:42:32;;;;;;;15.35;4.55;;;;;;;;;;5041635;28;19921;-76
2023/05/23 10:45:20;;;;;;;15.55;4.43;;;;;;;;;;5040645;28;20045;-77
2023/05/23 10:47:51;;;;;;;15.98;4.82;;;;;;;;;;5039982;28;20048;-77
2023/05/23 10:50:49;;;;;;;14.55;4.10;;;;;;;;;;5043464;28;20041;-77
2023/05/23 10:53:16;;;;;;;14.43;3.70;;;;;;;;;;4963609;28;20363;-78
2023/05/23 10:55:48;;;;;;;16.35;4.18;;;;;;;;;;4968802;28;20085;-78
2023/05/23 10:58:14;;;;;;;12.93;3.80;;;;;;;;;;4953250;28;20070;-77
2023/05/23 11:00:47;;;;;;;15.77;4.40;;;;;;;;;;4969823;28;20053;-78
2023/05/23 11:03:13;;;;;;;13.75;3.75;;;;;;;;;;4976021;28;20101;-77
2023/05/23 11:05:47;;;;;;;16.75;4.13;;;;;;;;;;4977817;28;20058;-77
2023/05/23 11:08:15;;;;;;;12.15;3.85;;;;;;;;;;4977799;28;20520;-77
2023/05/23 11:11:00;;;;;;;13.45;4.15;;;;;;;;;;4970318;28;20098;-77
2023/05/23 11:13:46;;;;;;;11.07;4.30;;;;;;;;;;4974019;28;20042;-76
2023/05/23 11:16:25;;;;;;;17.80;3.92;;;;;;;;;;4974824;28;20555;-76
2023/05/23 11:18:51;;;;;;;10.57;3.90;;;;;;;;;;4974824;28;20512;-76
2023/05/23 11:21:19;;;;;;;11.18;3.67;;;;;;;;;;4974218;28;20481;-76
2023/05/23 11:23:45;;;;;;;13.65;4.30;;;;;;;;;;4974461;28;20405;-76
2023/05/23 11:26:30;;;;;;;14.63;4.00;;;;;;;;;;4974649;28;20457;-77
2023/05/23 11:28:57;;;;;;;18.08;4.35;;;;;;;;;;5008375;28;20107;-77
2023/05/23 11:31:23;;;;;;;17.20;4.03;;;;;;;;;;5035721;28;20136;-77
2023/05/23 11:33:51;;;;;;;14.43;3.92;;;;;;;;;;5018063;28;20460;-77
2023/05/23 11:36:17;;;;;;;13.93;4.13;;;;;;;;;;5035171;28;20377;-77
2023/05/23 11:38:43;;;;;;;15.80;4.20;;;;;;;;;;5035727;28;20077;-77
2023/05/23 11:41:09;;;;;;;13.18;4.10;;;;;;;;;;5035419;28;20120;-76
2023/05/23 11:43:35;;;;;;;17.25;4.50;;;;;;;;;;5035733;28;20069;-76
2023/05/23 11:46:10;;;;;;;12.35;3.70;;;;;;;;;;5035510;28;20095;-77
2023/05/23 11:48:36;;;;;;;15.20;3.47;;;;;;;;;;5017582;28;20045;-77
2023/05/23 11:51:02;;;;;;;15.30;3.72;;;;;;;;;;5035590;28;20125;-77
2023/05/23 11:53:29;;;;;;;11.85;3.65;;;;;;;;;;5035299;28;20037;-77
2023/05/23 11:56:01;;;;;;;9.85;3.33;;;;;;;;;;5035505;28;20084;-77
2023/05/23 11:58:33;;;;;;;13.18;3.85;;;;;;;;;;5034838;28;20045;-77
2023/05/23 12:01:06;;;;;;;10.85;3.47;;;;;;;;;;5034903;28;20041;-77
2023/05/23 12:03:33;;;;;;;15.13;3.67;;;;;;;;;;5053754;28;20040;-77
2023/05/23 12:06:01;;;;;;;18.08;3.75;;;;;;;;;;5053792;28;20053;-77
2023/05/23 12:08:27;;;;;;;11.25;3.40;;;;;;;;;;5054993;28;20053;-77
2023/05/23 12:10:56;;;;;;;8.65;3.00;;;;;;;;;;5036989;28;20045;-77
2023/05/23 12:13:26;;;;;;;9.15;3.40;;;;;;;;;;5053449;28;20460;-77
2023/05/23 12:16:12;;;;;;;14.45;4.38;;;;;;;;;;5054949;28;20073;-77
2023/05/23 12:18:38;;;;;;;10.35;3.75;;;;;;;;;;5053729;28;20051;-77
2023/05/23 12:21:06;;;;;;;7.43;2.83;;;;;;;;;;5054871;28;20420;-77
2023/05/23 12:23:33;;;;;;;12.65;3.72;;;;;;;;;;5054764;28;20053;-77
2023/05/23 12:25:59;;;;;;;9.98;3.70;;;;;;;;;;5054316;28;20128;-77
2023/05/23 12:28:39;;;;;;;12.05;3.78;;;;;;;;;;5036462;28;20045;-77
2023/05/23 12:31:25;;;;;;;13.90;3.25;;;;;;;;;;5054837;28;20052;-77
2023/05/23 12:33:52;;;;;;;9.63;3.00;;;;;;;;;;5054518;28;20095;-77
2023/05/23 12:36:23;;;;;;;12.10;3.42;;;;;;;;;;5054322;28;20510;-77
2023/05/23 12:38:49;;;;;;;11.30;3.13;;;;;;;;;;5054582;28;20045;-77
2023/05/23 12:41:18;;;;;;;12.50;3.47;;;;;;;;;;5054144;28;20045;-77
2023/05/23 12:43:54;;;;;;;12.07;3.47;;;;;;;;;;5054652;28;20049;-77
2023/05/23 12:46:21;;;;;;;15.75;3.90;;;;;;;;;;5053935;28;20044;-77
2023/05/23 12:48:47;;;;;;;12.48;3.85;;;;;;;;;;5054277;28;20116;-77
2023/05/23 12:51:13;;;;;;;10.30;3.58;;;;;;;;;;5036189;28;20045;-77
2023/05/23 12:53:39;;;;;;;13.82;4.03;;;;;;;;;;5019765;28;20122;-77
2023/05/23 12:56:05;;;;;;;11.52;3.60;;;;;;;;;;5036125;28;20083;-77
2023/05/23 12:58:33;;;;;;;13.55;3.58;;;;;;;;;;5036332;28;20148;-77
2023/05/23 13:00:59;;;;;;;9.65;3.65;;;;;;;;;;5053776;28;20086;-77
2023/05/23 13:03:25;;;;;;;12.30;3.70;;;;;;;;;;5053631;28;20041;-77
2023/05/23 13:05:52;;;;;;;11.27;4.03;;;;;;;;;;5053774;28;20463;-77
2023/05/23 13:08:19;;;;;;;13.35;3.58;;;;;;;;;;5035572;28;20048;-77
2023/05/23 13:10:45;;;;;;;10.25;3.28;;;;;;;;;;5052069;28;20506;-77
2023/05/23 13:13:11;;;;;;;9.45;3.38;;;;;;;;;;5052487;28;20049;-77
2023/05/23 13:15:37;;;;;;;8.45;3.65;;;;;;;;;;5035810;28;20387;-77
2023/05/23 13:18:03;;;;;;;13.18;4.10;;;;;;;;;;5053515;28;20055;-77
2023/05/23 13:20:30;;;;;;;10.98;3.00;;;;;;;;;;5053806;28;20075;-77
2023/05/23 13:22:56;;;;;;;9.30;3.30;;;;;;;;;;5053204;28;20589;-77
2023/05/23 13:25:22;;;;;;;14.50;3.50;;;;;;;;;;5051624;28;20483;-76
2023/05/23 13:27:48;;;;;;;15.10;4.55;;;;;;;;;;5053300;28;20045;-76
2023/05/23 13:30:15;;;;;;;11.55;3.90;;;;;;;;;;5053340;28;20037;-76
2023/05/23 13:32:41;;;;;;;18.45;3.70;;;;;;;;;;5053626;28;20107;-77
2023/05/23 13:35:07;;;;;;;9.57;3.25;;;;;;;;;;5053168;28;20380;-77
2023/05/23 13:37:33;;;;;;;12.18;4.50;;;;;;;;;;5052977;28;20099;-77
2023/05/23 13:40:01;;;;;;;12.48;3.38;;;;;;;;;;5035395;28;20429;-77
2023/05/23 13:42:27;;;;;;;9.85;3.15;;;;;;;;;;5053160;28;20053;-77
2023/05/23 13:44:53;;;;;;;10.00;3.40;;;;;;;;;;5053059;28;20045;-77
2023/05/23 13:47:19;;;;;;;13.32;3.28;;;;;;;;;;5053060;28;20041;-76
2023/05/23 13:49:45;;;;;;;10.50;3.22;;;;;;;;;;5053380;28;20467;-77
2023/05/23 13:52:11;;;;;;;8.75;2.75;;;;;;;;;;5053182;28;20049;-77
2023/05/23 13:54:38;;;;;;;10.10;3.50;;;;;;;;;;5053074;28;20073;-77
2023/05/23 13:57:04;;;;;;;16.70;4.03;;;;;;;;;;5035176;28;20057;-77
2023/05/23 13:59:30;;;;;;;14.07;4.00;;;;;;;;;;5053200;28;20045;-77
2023/05/23 14:01:56;;;;;;;10.80;3.20;;;;;;;;;;5052953;28;20120;-77
2023/05/23 14:04:22;;;;;;;9.63;3.42;;;;;;;;;;5053096;28;20057;-77
2023/05/23 14:06:48;;;;;;;11.05;3.45;;;;;;;;;;5035050;28;20045;-77
2023/05/23 14:09:15;;;;;;;14.52;3.40;;;;;;;;;;5053159;28;20424;-77
2023/05/23 14:11:41;;;;;;;11.20;3.70;;;;;;;;;;5052555;28;20083;-77
2023/05/23 14:14:07;;;;;;;9.80;2.97;;;;;;;;;;5051892;28;20129;-77
2023/05/23 14:16:33;;;;;;;11.10;3.25;;;;;;;;;;5035204;28;20092;-77
2023/05/23 14:18:59;;;;;;;11.35;3.25;;;;;;;;;;5035179;28;20518;-77
2023/05/23 14:21:25;;;;;;;7.10;2.75;;;;;;;;;;5051952;28;20056;-77
2023/05/23 14:23:51;;;;;;;10.18;2.97;;;;;;;;;;5036387;28;20411;-77
2023/05/23 14:26:17;;;;;;;10.10;3.90;;;;;;;;;;5055775;28;20463;-77
2023/05/23 14:28:43;;;;;;;14.77;3.30;;;;;;;;;;5038219;28;20120;-76
2023/05/23 14:31:09;;;;;;;14.10;3.20;;;;;;;;;;5037166;28;20081;-77
2023/05/23 14:33:35;;;;;;;9.65;3.13;;;;;;;;;;5051796;28;20048;-77